createdAt,value
2018-12-02T00:00:44.756Z,113.20
2018-12-02T00:03:13.142Z,109.33
2018-12-02T00:05:41.573Z,108.07
2018-12-02T00:08:09.967Z,113.00
2018-12-02T00:10:38.378Z,124.23
2018-12-02T00:13:06.856Z,154.30
2018-12-02T00:15:37.067Z,133.23
2018-12-02T00:18:08.631Z,127.87
2018-12-02T00:20:37.250Z,127.70
2018-12-02T00:23:06.830Z,143.37
2018-12-02T00:25:35.608Z,151.90
2018-12-02T00:28:04.198Z,144.53
2018-12-02T00:30:32.613Z,144.67
2018-12-02T00:33:00.997Z,143.20
2018-12-02T00:35:29.397Z,138.13
2018-12-02T00:38:00.146Z,150.43
2018-12-02T00:40:29.138Z,170.90
2018-12-02T00:43:00.307Z,163.33
2018-12-02T00:45:32.963Z,153.53
2018-12-02T00:48:02.382Z,153.77
2018-12-02T00:50:30.790Z,151.33
2018-12-02T00:53:00.162Z,150.13
2018-12-02T00:55:37.400Z,152.63
2018-12-02T00:58:05.977Z,145.13
2018-12-02T01:00:34.378Z,142.73
2018-12-02T01:03:02.899Z,146.67
2018-12-02T01:05:31.310Z,155.00
2018-12-02T01:07:59.702Z,151.77
2018-12-02T01:10:28.737Z,143.23
2018-12-02T01:12:58.278Z,130.93
2018-12-02T01:15:33.438Z,127.53
2018-12-02T01:18:01.825Z,130.57
2018-12-02T01:20:30.229Z,133.97
2018-12-02T01:22:58.630Z,126.03
2018-12-02T01:25:27.020Z,127.00
2018-12-02T01:27:55.434Z,130.10
2018-12-02T01:30:24.797Z,139.67
2018-12-02T01:32:55.178Z,139.73
2018-12-02T01:35:23.700Z,133.97
2018-12-02T01:37:52.105Z,132.60
2018-12-02T01:40:21.533Z,125.63
2018-12-02T01:42:50.819Z,125.53
2018-12-02T01:45:20.193Z,123.20
2018-12-02T01:47:48.666Z,124.63
2018-12-02T01:50:18.928Z,122.33
2018-12-02T01:52:51.497Z,120.00
2018-12-02T01:55:19.904Z,122.47
2018-12-02T01:57:48.451Z,119.87
2018-12-02T02:00:17.828Z,123.50
2018-12-02T02:02:46.316Z,123.83
2018-12-02T02:05:15.529Z,120.93
2018-12-02T02:07:44.040Z,119.07
2018-12-02T02:10:29.628Z,114.00
2018-12-02T02:12:58.027Z,116.53
2018-12-02T02:15:26.434Z,114.60
2018-12-02T02:17:54.837Z,113.80
2018-12-02T02:20:24.259Z,108.13
2018-12-02T02:22:53.016Z,106.03
2018-12-02T02:25:22.422Z,108.13
2018-12-02T02:27:53.442Z,102.70
2018-12-02T02:30:23.447Z,99.13
2018-12-02T02:32:52.524Z,101.80
2018-12-02T02:35:21.686Z,101.03
2018-12-02T02:37:51.237Z,98.67
2018-12-02T02:40:22.573Z,94.47
2018-12-02T02:42:50.975Z,92.10
2018-12-02T02:45:19.376Z,94.17
2018-12-02T02:47:47.860Z,93.10
2018-12-02T02:50:17.382Z,89.83
2018-12-02T02:52:47.057Z,89.93
2018-12-02T02:55:15.463Z,90.70
2018-12-02T02:57:43.879Z,83.97
2018-12-02T03:00:16.090Z,83.83
2018-12-02T03:02:44.498Z,85.00
2018-12-02T03:05:13.570Z,82.93
2018-12-02T03:07:41.966Z,79.00
2018-12-02T03:10:16.718Z,77.77
2018-12-02T03:12:46.216Z,79.53
2018-12-02T03:15:16.398Z,78.10
2018-12-02T03:17:44.961Z,75.80
2018-12-02T03:20:14.397Z,75.07
2018-12-02T03:22:43.809Z,73.03
2018-12-02T03:25:16.199Z,73.83
2018-12-02T03:27:44.584Z,72.23
2018-12-02T03:30:13.968Z,70.07
2018-12-02T03:32:42.405Z,69.50
2018-12-02T03:35:11.841Z,68.13
2018-12-02T03:37:40.221Z,68.30
2018-12-02T03:40:12.909Z,64.60
2018-12-02T03:42:41.290Z,64.67
2018-12-02T03:45:12.926Z,66.37
2018-12-02T03:47:41.325Z,62.10
2018-12-02T03:50:17.731Z,63.63
2018-12-02T03:52:44.053Z,61.53
2018-12-02T03:55:12.461Z,60.77
2018-12-02T03:57:40.844Z,59.70
2018-12-02T04:00:26.619Z,59.80
2018-12-02T04:02:55.959Z,58.80
2018-12-02T04:05:25.257Z,58.13
2018-12-02T04:07:53.889Z,56.53
2018-12-02T04:10:22.492Z,54.90
2018-12-02T04:12:51.930Z,56.43
2018-12-02T04:15:21.348Z,55.77
2018-12-02T04:17:49.713Z,52.10
2018-12-02T04:20:19.022Z,53.57
2018-12-02T04:22:49.101Z,51.63
2018-12-02T04:25:18.547Z,50.80
2018-12-02T04:27:47.014Z,52.70
2018-12-02T04:30:18.142Z,50.33
2018-12-02T04:32:47.367Z,50.20
2018-12-02T04:35:19.841Z,50.30
2018-12-02T04:37:48.306Z,48.90
2018-12-02T04:40:16.688Z,45.33
2018-12-02T04:42:45.177Z,47.20
2018-12-02T04:45:16.409Z,46.27
2018-12-02T04:47:44.960Z,47.00
2018-12-02T04:50:29.192Z,44.50
2018-12-02T04:52:57.581Z,45.33
2018-12-02T04:55:25.970Z,42.93
2018-12-02T04:57:54.361Z,43.40
2018-12-02T05:00:22.755Z,41.70
2018-12-02T05:02:52.689Z,41.27
2018-12-02T05:05:23.034Z,40.60
2018-12-02T05:07:51.586Z,39.97
2018-12-02T05:10:20.798Z,37.83
2018-12-02T05:12:50.180Z,39.57
2018-12-02T05:15:19.406Z,38.37
2018-12-02T05:17:47.800Z,36.87
2018-12-02T05:20:17.985Z,38.97
2018-12-02T05:22:46.402Z,34.10
2018-12-02T05:25:17.929Z,36.13
2018-12-02T05:27:44.122Z,35.13
2018-12-02T05:30:16.618Z,35.07
2018-12-02T05:32:46.050Z,34.10
2018-12-02T05:35:14.711Z,33.87
2018-12-02T05:37:43.110Z,33.43
2018-12-02T05:40:14.645Z,32.97
2018-12-02T05:42:43.045Z,32.70
2018-12-02T05:45:12.450Z,32.43
2018-12-02T05:47:40.874Z,30.83
2018-12-02T05:50:11.770Z,30.83
2018-12-02T05:52:40.149Z,30.73
2018-12-02T05:55:10.565Z,29.90
2018-12-02T05:57:39.141Z,30.67
2018-12-02T06:00:11.167Z,28.60
2018-12-02T06:02:39.614Z,29.83
2018-12-02T06:05:09.509Z,28.37
2018-12-02T06:07:37.916Z,27.20
2018-12-02T06:10:10.617Z,28.17
2018-12-02T06:12:39.484Z,26.30
2018-12-02T06:15:11.679Z,27.73
2018-12-02T06:17:40.246Z,26.47
2018-12-02T06:20:13.187Z,25.67
2018-12-02T06:22:41.592Z,25.33
2018-12-02T06:25:10.342Z,25.53
2018-12-02T06:27:38.854Z,24.60
2018-12-02T06:30:12.622Z,23.30
2018-12-02T06:32:41.125Z,24.13
2018-12-02T06:35:11.026Z,25.20
2018-12-02T06:37:39.450Z,23.63
2018-12-02T06:40:12.617Z,22.93
2018-12-02T06:42:41.037Z,23.00
2018-12-02T06:45:10.293Z,23.00
2018-12-02T06:47:38.879Z,23.07
2018-12-02T06:50:10.354Z,22.47
2018-12-02T06:52:38.780Z,22.87
2018-12-02T06:55:18.727Z,21.30
2018-12-02T06:57:53.224Z,22.53
2018-12-02T07:00:33.073Z,20.67
2018-12-02T07:03:39.417Z,19.90
2018-12-02T07:06:08.014Z,20.80
2018-12-02T07:08:36.399Z,20.23
2018-12-02T07:11:05.448Z,20.20
2018-12-02T07:13:33.834Z,20.17
2018-12-02T07:16:02.232Z,18.77
2018-12-02T07:18:32.126Z,19.53
2018-12-02T07:21:00.519Z,18.70
2018-12-02T07:23:30.592Z,19.23
2018-12-02T07:26:02.447Z,17.97
2018-12-02T07:28:30.841Z,18.57
2018-12-02T07:30:59.260Z,18.80
2018-12-02T07:33:27.643Z,18.47
2018-12-02T07:35:56.045Z,17.83
2018-12-02T07:38:42.363Z,18.23
2018-12-02T07:41:11.026Z,17.17
2018-12-02T07:43:39.424Z,18.13
2018-12-02T07:46:07.876Z,16.77
2018-12-02T07:48:36.264Z,16.43
2018-12-02T07:51:04.721Z,16.63
2018-12-02T07:53:33.109Z,17.13
2018-12-02T07:56:01.513Z,16.30
2018-12-02T07:58:29.923Z,16.60
2018-12-02T08:00:58.306Z,16.07
2018-12-02T08:03:26.710Z,16.63
2018-12-02T08:05:55.086Z,15.50
2018-12-02T08:08:23.489Z,15.60
2018-12-02T08:10:51.889Z,14.80
2018-12-02T08:13:20.323Z,15.63
2018-12-02T08:15:48.702Z,20.07
2018-12-02T08:18:17.099Z,15.67
2018-12-02T08:20:45.607Z,17.87
2018-12-02T08:23:14.010Z,21.33
2018-12-02T08:25:42.413Z,35.03
2018-12-02T08:28:10.830Z,40.60
2018-12-02T08:30:39.243Z,37.73
2018-12-02T08:33:08.768Z,32.77
2018-12-02T08:35:36.084Z,30.67
2018-12-02T08:38:09.417Z,31.10
2018-12-02T08:40:37.843Z,27.17
2018-12-02T08:43:07.352Z,24.70
2018-12-02T08:45:35.913Z,27.30
2018-12-02T08:48:04.334Z,30.83
2018-12-02T08:50:32.738Z,28.63
2018-12-02T08:53:01.154Z,28.13
2018-12-02T08:55:30.538Z,28.30
2018-12-02T08:57:58.920Z,29.57
2018-12-02T09:00:27.321Z,27.80
2018-12-02T09:02:58.241Z,27.63
2018-12-02T09:05:26.833Z,27.53
2018-12-02T09:07:57.741Z,27.43
2018-12-02T09:10:28.189Z,26.30
2018-12-02T09:13:05.161Z,21.70
2018-12-02T09:15:33.564Z,21.10
2018-12-02T09:18:02.063Z,28.43
2018-12-02T09:20:33.066Z,38.40
2018-12-02T09:23:01.509Z,57.80
2018-12-02T09:25:30.028Z,40.27
2018-12-02T09:27:58.437Z,34.87
2018-12-02T09:30:28.021Z,35.83
2018-12-02T09:32:56.611Z,29.70
2018-12-02T09:35:25.000Z,28.90
2018-12-02T09:37:53.410Z,37.77
2018-12-02T09:40:21.795Z,46.90
2018-12-02T09:42:51.669Z,46.33
2018-12-02T09:45:23.009Z,40.43
2018-12-02T09:47:51.442Z,39.20
2018-12-02T09:50:19.818Z,40.70
2018-12-02T09:52:48.288Z,38.17
2018-12-02T09:55:28.323Z,39.03
2018-12-02T09:57:57.201Z,37.87
2018-12-02T10:00:25.642Z,29.87
2018-12-02T10:02:54.061Z,30.73
2018-12-02T10:05:22.454Z,39.03
2018-12-02T10:07:50.862Z,76.07
2018-12-02T10:10:22.882Z,74.73
2018-12-02T10:12:59.997Z,61.03
2018-12-02T10:15:29.208Z,61.53
2018-12-02T10:17:57.596Z,63.03
2018-12-02T10:20:26.027Z,59.60
2018-12-02T10:22:54.435Z,57.67
2018-12-02T10:25:22.861Z,58.37
2018-12-02T10:27:51.277Z,58.33
2018-12-02T10:30:21.875Z,56.83
2018-12-02T10:32:50.982Z,55.73
2018-12-02T10:35:19.357Z,53.33
2018-12-02T10:37:48.064Z,51.00
2018-12-02T10:40:17.462Z,66.23
2018-12-02T10:42:46.275Z,94.97
2018-12-02T10:45:17.628Z,104.00
2018-12-02T10:47:46.038Z,101.07
2018-12-02T10:50:22.015Z,91.83
2018-12-02T10:52:51.366Z,87.80
2018-12-02T10:55:25.561Z,81.70
2018-12-02T10:57:53.963Z,83.63
2018-12-02T11:00:27.788Z,98.03
2018-12-02T11:02:56.195Z,106.50
2018-12-02T11:05:24.723Z,102.63
2018-12-02T11:07:53.192Z,102.17
2018-12-02T11:10:21.619Z,96.60
2018-12-02T11:12:50.037Z,99.37
2018-12-02T11:15:18.449Z,99.40
2018-12-02T11:17:47.254Z,96.07
2018-12-02T11:20:16.498Z,107.27
2018-12-02T11:22:44.982Z,116.67
2018-12-02T11:25:14.585Z,116.47
2018-12-02T11:27:43.022Z,118.77
2018-12-02T11:30:13.629Z,121.03
2018-12-02T11:32:42.602Z,112.77
2018-12-02T11:35:13.252Z,106.87
2018-12-02T11:37:41.705Z,111.33
2018-12-02T11:40:13.482Z,111.43
2018-12-02T11:42:41.978Z,117.83
2018-12-02T11:45:11.552Z,119.20
2018-12-02T11:47:40.503Z,124.17
2018-12-02T11:50:12.274Z,129.70
2018-12-02T11:52:40.773Z,128.43
2018-12-02T11:55:11.231Z,119.97
2018-12-02T11:57:39.799Z,112.80
2018-12-02T12:00:28.609Z,111.43
2018-12-02T12:02:58.083Z,108.50
2018-12-02T12:05:26.650Z,110.83
2018-12-02T12:07:55.087Z,117.20
2018-12-02T12:10:27.449Z,113.50
2018-12-02T12:12:59.771Z,114.43
2018-12-02T12:15:30.718Z,113.03
2018-12-02T12:17:59.802Z,110.60
2018-12-02T12:20:31.378Z,107.00
2018-12-02T12:22:59.773Z,108.60
2018-12-02T12:25:29.012Z,112.50
2018-12-02T12:27:58.206Z,126.43
2018-12-02T12:30:29.703Z,131.13
2018-12-02T12:32:58.105Z,129.97
2018-12-02T12:35:27.054Z,127.13
2018-12-02T12:37:56.074Z,128.43
2018-12-02T12:40:26.086Z,123.70
2018-12-02T12:43:28.086Z,121.53
2018-12-02T12:45:56.726Z,119.77
2018-12-02T12:48:25.128Z,119.23
2018-12-02T12:50:53.513Z,112.63
2018-12-02T12:53:21.922Z,108.97
2018-12-02T12:55:51.248Z,105.50
2018-12-02T12:58:19.849Z,104.00
2018-12-02T13:00:48.686Z,101.70
2018-12-02T13:03:17.087Z,102.77
2018-12-02T13:05:45.910Z,96.20
2018-12-02T13:08:15.292Z,97.00
2018-12-02T13:10:44.658Z,97.80
2018-12-02T13:13:15.504Z,94.80
2018-12-02T13:15:43.964Z,96.87
2018-12-02T13:18:12.346Z,95.63
2018-12-02T13:20:44.276Z,90.03
2018-12-02T13:23:12.791Z,91.10
2018-12-02T13:25:41.209Z,86.57
2018-12-02T13:28:09.729Z,89.67
2018-12-02T13:30:38.397Z,87.70
2018-12-02T13:33:07.557Z,85.93
2018-12-02T13:35:36.882Z,101.77
2018-12-02T13:38:05.784Z,94.10
2018-12-02T13:40:34.673Z,97.87
2018-12-02T13:43:06.942Z,94.80
2018-12-02T13:45:35.333Z,96.53
2018-12-02T13:48:03.892Z,111.23
2018-12-02T13:50:32.274Z,126.60
2018-12-02T13:53:00.699Z,128.60
2018-12-02T13:55:30.371Z,135.47
2018-12-02T13:57:59.763Z,125.77
2018-12-02T14:00:28.779Z,123.00
2018-12-02T14:03:01.357Z,121.40
2018-12-02T14:05:29.822Z,109.93
2018-12-02T14:07:58.250Z,104.20
2018-12-02T14:10:26.648Z,100.60
2018-12-02T14:13:05.624Z,110.20
2018-12-02T14:16:45.741Z,126.87
2018-12-02T14:19:14.303Z,96.70
2018-12-02T14:21:42.695Z,98.33
2018-12-02T14:24:11.914Z,107.47
2018-12-02T14:26:44.005Z,105.80
2018-12-02T14:30:16.655Z,104.43
2018-12-02T14:32:45.186Z,96.60
2018-12-02T14:35:13.607Z,90.63
2018-12-02T14:37:42.003Z,90.23
2018-12-02T14:40:12.639Z,89.03
2018-12-02T14:42:42.134Z,84.87
2018-12-02T14:45:14.857Z,82.10
2018-12-02T14:47:43.534Z,90.23
2018-12-02T14:50:14.329Z,90.33
2018-12-02T14:52:43.467Z,104.67
2018-12-02T14:55:13.427Z,108.33
2018-12-02T14:57:41.878Z,101.20
2018-12-02T15:00:13.759Z,98.93
2018-12-02T15:02:42.165Z,96.07
2018-12-02T15:05:11.721Z,90.67
2018-12-02T15:07:40.313Z,88.23
2018-12-02T15:10:18.339Z,84.70
2018-12-02T15:12:48.281Z,83.73
2018-12-02T15:15:17.738Z,85.73
2018-12-02T15:17:47.455Z,80.17
2018-12-02T15:20:20.025Z,81.43
2018-12-02T15:22:49.422Z,74.93
2018-12-02T15:25:17.835Z,77.93
2018-12-02T15:27:46.333Z,74.53
2018-12-02T15:30:16.608Z,68.17
2018-12-02T15:32:46.486Z,69.73
2018-12-02T15:35:14.879Z,71.63
2018-12-02T15:37:43.982Z,92.43
2018-12-02T15:40:14.440Z,117.13
2018-12-02T15:42:45.594Z,108.63
2018-12-02T15:45:14.523Z,117.87
2018-12-02T15:47:42.930Z,106.27
2018-12-02T15:50:16.445Z,108.10
2018-12-02T15:52:45.203Z,99.63
2018-12-02T15:55:16.392Z,94.97
2018-12-02T15:57:45.934Z,93.70
2018-12-02T16:00:16.784Z,90.73
2018-12-02T16:02:45.217Z,83.43
2018-12-02T16:05:13.866Z,84.77
2018-12-02T16:07:42.363Z,87.20
2018-12-02T16:10:12.071Z,114.80
2018-12-02T16:12:42.369Z,119.07
2018-12-02T16:15:15.086Z,107.33
2018-12-02T16:17:44.161Z,109.63
2018-12-02T16:20:18.074Z,102.50
2018-12-02T16:22:46.505Z,96.67
2018-12-02T16:25:15.047Z,91.70
2018-12-02T16:27:43.565Z,85.30
2018-12-02T16:30:14.950Z,83.43
2018-12-02T16:32:49.604Z,78.43
2018-12-02T16:35:18.612Z,86.77
2018-12-02T16:37:48.206Z,110.80
2018-12-02T16:40:19.041Z,118.93
2018-12-02T16:42:47.450Z,119.70
2018-12-02T16:45:17.019Z,115.10
2018-12-02T16:47:46.622Z,114.87
2018-12-02T16:50:22.491Z,119.97
2018-12-02T16:52:51.775Z,119.87
2018-12-02T16:55:22.040Z,115.60
2018-12-02T16:58:02.435Z,117.20
2018-12-02T17:00:38.130Z,115.13
2018-12-02T17:03:06.566Z,113.13
2018-12-02T17:05:35.009Z,109.83
2018-12-02T17:08:03.439Z,110.77
2018-12-02T17:10:32.767Z,103.80
2018-12-02T17:13:01.206Z,102.00
2018-12-02T17:15:29.598Z,100.77
2018-12-02T17:17:58.156Z,96.77
2018-12-02T17:20:27.483Z,90.60
2018-12-02T17:22:55.043Z,89.73
2018-12-02T17:25:23.456Z,86.53
2018-12-02T17:27:51.858Z,83.27
2018-12-02T17:30:28.002Z,111.30
2018-12-02T17:32:56.443Z,102.33
2018-12-02T17:35:24.849Z,104.33
2018-12-02T17:37:53.357Z,100.10
2018-12-02T17:40:22.891Z,108.10
2018-12-02T17:42:51.670Z,118.97
2018-12-02T17:45:20.069Z,127.40
2018-12-02T17:47:48.493Z,127.47
2018-12-02T17:50:18.197Z,129.67
2018-12-02T17:52:48.110Z,126.20
2018-12-02T17:55:16.538Z,134.73
2018-12-02T17:57:44.953Z,124.53
2018-12-02T18:00:16.828Z,142.70
2018-12-02T18:02:45.221Z,132.43
2018-12-02T18:05:15.334Z,136.30
2018-12-02T18:07:43.794Z,133.00
2018-12-02T18:10:13.506Z,130.50
2018-12-02T18:12:42.635Z,124.87
2018-12-02T18:15:13.363Z,142.93
2018-12-02T18:17:41.926Z,204.77
2018-12-02T18:20:15.440Z,212.27
2018-12-02T18:22:44.106Z,162.57
2018-12-02T18:25:16.604Z,149.20
2018-12-02T18:27:45.030Z,139.90
2018-12-02T18:30:19.775Z,137.00
2018-12-02T18:32:49.611Z,135.17
2018-12-02T18:35:26.424Z,133.40
2018-12-02T18:37:57.752Z,131.07
2018-12-02T18:40:26.253Z,125.13
2018-12-02T18:42:54.696Z,115.70
2018-12-02T18:45:23.786Z,115.67
2018-12-02T18:47:52.299Z,126.20
2018-12-02T18:50:21.426Z,120.43
2018-12-02T18:52:49.826Z,127.23
2018-12-02T18:55:18.352Z,136.03
2018-12-02T18:57:46.751Z,119.80
2018-12-02T19:00:21.460Z,118.13
2018-12-02T19:02:52.554Z,146.13
2018-12-02T19:05:21.168Z,144.27
2018-12-02T19:07:49.685Z,139.63
2018-12-02T19:10:19.778Z,135.27
2018-12-02T19:12:50.505Z,129.80
2018-12-02T19:15:18.938Z,124.53
2018-12-02T19:17:47.546Z,142.53
2018-12-02T19:20:24.243Z,147.17
2018-12-02T19:22:54.156Z,163.73
2018-12-02T19:25:24.244Z,158.60
2018-12-02T19:27:52.677Z,151.13
2018-12-02T19:30:21.247Z,175.50
2018-12-02T19:32:49.847Z,159.87
2018-12-02T19:35:21.038Z,143.10
2018-12-02T19:37:51.219Z,149.53
2018-12-02T19:40:19.686Z,145.17
2018-12-02T19:42:48.158Z,143.10
2018-12-02T19:45:17.957Z,138.47
2018-12-02T19:47:46.379Z,154.10
2018-12-02T19:50:16.156Z,141.43
2018-12-02T19:52:44.590Z,139.07
2018-12-02T19:55:13.435Z,147.93
2018-12-02T19:57:49.840Z,137.47
2018-12-02T20:00:25.363Z,147.27
2018-12-02T20:02:54.439Z,148.53
2018-12-02T20:05:22.874Z,146.57
2018-12-02T20:07:55.821Z,153.57
2018-12-02T20:10:29.391Z,154.70
2018-12-02T20:13:07.675Z,148.33
2018-12-02T20:15:36.175Z,146.03
2018-12-02T20:18:04.709Z,146.30
2018-12-02T20:20:39.739Z,155.97
2018-12-02T20:23:08.223Z,150.83
2018-12-02T20:25:36.680Z,151.53
2018-12-02T20:28:07.129Z,153.33
2018-12-02T20:30:37.147Z,152.93
2018-12-02T20:33:06.342Z,147.60
2018-12-02T20:35:34.803Z,154.87
2018-12-02T20:38:03.385Z,144.27
2018-12-02T20:40:31.831Z,151.07
2018-12-02T20:43:00.318Z,171.47
2018-12-02T20:45:29.266Z,171.17
2018-12-02T20:47:57.806Z,172.50
2018-12-02T20:50:26.236Z,160.67
2018-12-02T20:52:54.675Z,165.30
2018-12-02T20:55:24.709Z,168.77
2018-12-02T20:57:55.221Z,169.67
2018-12-02T21:00:23.704Z,172.63
2018-12-02T21:02:57.158Z,178.73
2018-12-02T21:05:31.929Z,166.87
2018-12-02T21:08:00.354Z,178.87
2018-12-02T21:10:30.116Z,169.53
2018-12-02T21:12:58.600Z,165.10
2018-12-02T21:15:27.078Z,167.23
2018-12-02T21:17:55.522Z,185.07
2018-12-02T21:20:23.960Z,187.77
2018-12-02T21:22:52.583Z,162.40
2018-12-02T21:25:22.451Z,177.90
2018-12-02T21:27:51.025Z,163.93
2018-12-02T21:30:24.918Z,174.87
2018-12-02T21:32:53.374Z,193.50
2018-12-02T21:35:21.847Z,185.17
2018-12-02T21:37:51.418Z,181.47
2018-12-02T21:40:19.931Z,169.13
2018-12-02T21:42:48.354Z,170.33
2018-12-02T21:45:17.774Z,165.03
2018-12-02T21:47:48.337Z,173.70
2018-12-02T21:50:23.184Z,172.23
2018-12-02T21:52:51.735Z,172.20
2018-12-02T21:55:20.135Z,167.13
2018-12-02T21:57:48.563Z,166.13
2018-12-02T22:00:22.960Z,183.40
2018-12-02T22:02:52.363Z,194.87
2018-12-02T22:05:20.782Z,190.13
2018-12-02T22:07:50.975Z,186.53
2018-12-02T22:10:22.659Z,180.90
2018-12-02T22:12:51.140Z,181.53
2018-12-02T22:15:19.538Z,173.03
2018-12-02T22:17:48.035Z,167.80
2018-12-02T22:20:17.144Z,169.07
2018-12-02T22:22:45.725Z,157.23
2018-12-02T22:25:17.126Z,149.23
2018-12-02T22:27:46.657Z,148.37
2018-12-02T22:30:17.181Z,154.67
2018-12-02T22:32:45.637Z,148.80
2018-12-02T22:35:14.968Z,142.63
2018-12-02T22:37:44.138Z,149.03
2018-12-02T22:40:23.350Z,153.73
2018-12-02T22:42:52.869Z,150.77
2018-12-02T22:45:24.627Z,146.63
2018-12-02T22:47:53.129Z,155.40
2018-12-02T22:50:22.584Z,146.13
2018-12-02T22:52:52.205Z,135.67
2018-12-02T22:55:20.969Z,152.40
2018-12-02T22:57:49.435Z,133.47
2018-12-02T23:00:29.325Z,132.57
2018-12-02T23:03:09.375Z,142.60
2018-12-02T23:05:38.130Z,137.40
2018-12-02T23:08:06.842Z,136.43
2018-12-02T23:10:35.253Z,139.87
2018-12-02T23:13:03.665Z,134.73
2018-12-02T23:15:32.150Z,137.77
2018-12-02T23:18:00.585Z,134.13
2018-12-02T23:20:29.000Z,137.50
2018-12-02T23:22:57.415Z,128.93
2018-12-02T23:25:25.810Z,126.80
2018-12-02T23:27:54.215Z,125.10
2018-12-02T23:30:24.134Z,124.80
2018-12-02T23:32:52.531Z,123.93
2018-12-02T23:35:20.954Z,127.57
2018-12-02T23:37:49.369Z,127.77
2018-12-02T23:40:20.342Z,125.80
2018-12-02T23:42:48.846Z,125.87
2018-12-02T23:45:17.923Z,121.77
2018-12-02T23:47:46.343Z,126.90
2018-12-02T23:50:16.579Z,125.90
2018-12-02T23:52:45.092Z,134.50
2018-12-02T23:55:14.804Z,135.80
2018-12-02T23:57:43.302Z,136.50
